EDT,Max TemperatureF,Mean TemperatureF,Min TemperatureF,Max Dew PointF,MeanDew PointF,Min DewpointF,Max Humidity, Mean Humidity, Min Humidity, Max Sea Level PressureIn, Mean Sea Level PressureIn, Min Sea Level PressureIn, Max VisibilityMiles, Mean VisibilityMiles, Min VisibilityMiles, Max Wind SpeedMPH, Mean Wind SpeedMPH, Max Gust SpeedMPH,PrecipitationIn, CloudCover, Events, WindDirDegrees
2012-10-1,62,58,55,57,54,54,100,90,72,29.83,29.68,29.62,10,10,9,18,11,26,0.00,6,,211
2012-10-2,71,62,53,57,55,54,100,84,56,30.03,29.95,29.84,10,10,10,14,6,21,0.00,2,,228
2012-10-3,69,62,55,59,57,52,100,86,53,30.18,30.11,30.04,10,10,9,8,1,,0.00,7,,245
2012-10-4,60,56,53,59,54,50,100,87,72,30.21,30.14,30.03,10,10,5,9,3,,0.31,8,,77
2012-10-5,60,56,53,59,56,52,100,97,88,30.04,29.97,29.91,10,7,0,14,3,,0.04,8,,191
2012-10-6,66,60,51,63,59,48,100,95,82,29.91,29.80,29.68,10,7,0,23,11,30,0.18,7,,200
2012-10-7,55,48,42,48,45,37,100,84,51,30.04,29.99,29.84,10,10,7,7,1,,0.00,2,,294
2012-10-8,55,47,39,48,41,36,100,81,47,30.37,30.18,30.00,10,10,6,13,4,17,0.16,2,,316
2012-10-9,53,46,39,41,38,36,100,73,51,30.39,30.33,30.22,10,10,9,12,4,16,0.00,3,,60
2012-10-10,,,,,,,,,,,,,,,,,,,,,,
2012-10-11,,,,,,,,,,,,,,,,,,,,,,
2012-10-12,,,,,,,,,,,,,,,,,,,,,,
2012-10-13,,,,,,,,,,,,,,,,,,,,,,
2012-10-14,,,,,,,,,,,,,,,,,,,,,,
2012-10-15,,,,,,,,,,,,,,,,,,,,,,
2012-10-16,,,,,,,,,,,,,,,,,,,,,,
2012-10-17,,,,,,,,,,,,,,,,,,,,,,
2012-10-18,60,52,44,50,44,28,100,75,29,30.20,30.15,30.13,10,10,1,12,4,,0.00,0,,179
2012-10-19,62,51,42,61,52,43,100,95,77,30.19,30.10,29.87,10,9,2,25,4,34,0.41,6,,102
2012-10-20,64,60,57,64,62,57,100,98,94,29.86,29.73,29.64,10,6,1,26,16,37,1.18,8,Thunderstorm,167
2012-10-21,60,55,50,57,48,41,100,77,48,29.75,29.71,29.64,10,9,5,12,5,16,0.00,4,,247
2012-10-22,57,52,46,45,41,36,87,67,47,29.89,29.79,29.73,10,10,10,17,6,29,0.00,4,,275
2012-10-23,55,48,41,37,35,32,81,62,41,30.11,30.00,29.90,10,10,10,14,5,22,0.00,1,,295
2012-10-24,57,44,30,36,31,25,100,67,29,30.24,30.15,30.09,10,10,9,8,3,,0.00,0,,316
2012-10-25,53,40,28,39,32,27,100,75,43,30.35,30.30,30.25,10,10,10,8,4,,0.00,0,,348
2012-10-26,57,45,33,50,43,32,100,90,72,30.28,30.21,30.14,10,9,0,12,2,,0.00,0,,211
2012-10-27,62,52,42,54,44,30,100,81,30,30.14,30.09,30.04,10,6,0,7,1,,0.00,3,,57
2012-10-28,57,50,44,52,47,45,100,88,72,30.10,30.03,29.94,10,9,3,15,8,22,0.00,6,,27
2012-10-29,60,55,50,57,54,50,100,92,77,29.93,29.80,29.68,10,8,3,25,15,44,0.00,8,,63
2012-10-30,62,60,57,63,60,57,100,98,94,29.78,29.72,29.65,10,5,0,26,16,39,1.59,8,Thunderstorm,103
2012-10-31,62,56,51,61,57,50,100,97,88,29.67,29.59,29.52,10,7,1,12,6,21,0.47,8,,123